sensor_id;sensor_type;location;lat;lon;timestamp;P1;durP1;ratioP1;P2;durP2;ratioP2
52072;SDS011;38074;51.232;6.826;2023-11-21T00:05:02;1.50;;;0.60;;
52072;SDS011;38074;51.232;6.826;2023-11-21T00:12:18;1.05;;;0.40;;
52072;SDS011;38074;51.232;6.826;2023-11-21T00:19:35;2.20;;;0.57;;
52072;SDS011;38074;51.232;6.826;2023-11-21T00:26:51;0.73;;;0.40;;
52072;SDS011;38074;51.232;6.826;2023-11-21T00:34:08;1.67;;;0.30;;
52072;SDS011;38074;51.232;6.826;2023-11-21T00:41:23;2.07;;;0.40;;
52072;SDS011;38074;51.232;6.826;2023-11-21T00:48:39;3.22;;;0.50;;
52072;SDS011;38074;51.232;6.826;2023-11-21T00:55:55;1.00;;;0.33;;
52072;SDS011;38074;51.232;6.826;2023-11-21T01:03:12;1.43;;;0.50;;
52072;SDS011;38074;51.232;6.826;2023-11-21T01:10:27;2.17;;;0.50;;
52072;SDS011;38074;51.232;6.826;2023-11-21T01:17:43;4.10;;;0.40;;
52072;SDS011;38074;51.232;6.826;2023-11-21T01:24:58;2.53;;;0.50;;
52072;SDS011;38074;51.232;6.826;2023-11-21T01:32:14;0.80;;;0.30;;
52072;SDS011;38074;51.232;6.826;2023-11-21T01:39:30;0.83;;;0.40;;
52072;SDS011;38074;51.232;6.826;2023-11-21T01:46:46;0.83;;;0.40;;
52072;SDS011;38074;51.232;6.826;2023-11-21T01:54:03;0.90;;;0.40;;
52072;SDS011;38074;51.232;6.826;2023-11-21T02:01:21;0.88;;;0.30;;
52072;SDS011;38074;51.232;6.826;2023-11-21T02:08:37;2.10;;;0.40;;
52072;SDS011;38074;51.232;6.826;2023-11-21T02:15:52;0.60;;;0.30;;
52072;SDS011;38074;51.232;6.826;2023-11-21T02:23:09;0.77;;;0.53;;
52072;SDS011;38074;51.232;6.826;2023-11-21T02:30:25;0.60;;;0.30;;
52072;SDS011;38074;51.232;6.826;2023-11-21T02:37:41;1.30;;;0.43;;
52072;SDS011;38074;51.232;6.826;2023-11-21T02:44:57;2.28;;;0.82;;
52072;SDS011;38074;51.232;6.826;2023-11-21T02:52:12;1.40;;;0.60;;
52072;SDS011;38074;51.232;6.826;2023-11-21T02:59:28;0.50;;;0.30;;
52072;SDS011;38074;51.232;6.826;2023-11-21T03:06:44;0.80;;;0.40;;
52072;SDS011;38074;51.232;6.826;2023-11-21T03:14:00;1.03;;;0.50;;
52072;SDS011;38074;51.232;6.826;2023-11-21T03:21:16;1.77;;;0.50;;
52072;SDS011;38074;51.232;6.826;2023-11-21T03:28:31;2.25;;;0.50;;
52072;SDS011;38074;51.232;6.826;2023-11-21T03:35:47;2.13;;;0.53;;
52072;SDS011;38074;51.232;6.826;2023-11-21T03:43:04;1.83;;;0.30;;
52072;SDS011;38074;51.232;6.826;2023-11-21T03:50:19;0.90;;;0.30;;
52072;SDS011;38074;51.232;6.826;2023-11-21T03:57:35;0.90;;;0.30;;
52072;SDS011;38074;51.232;6.826;2023-11-21T04:04:51;0.98;;;0.32;;
52072;SDS011;38074;51.232;6.826;2023-11-21T04:12:07;1.08;;;0.40;;
52072;SDS011;38074;51.232;6.826;2023-11-21T04:26:40;1.37;;;0.30;;
52072;SDS011;38074;51.232;6.826;2023-11-21T04:33:55;1.67;;;0.40;;
52072;SDS011;38074;51.232;6.826;2023-11-21T04:41:11;0.80;;;0.40;;
52072;SDS011;38074;51.232;6.826;2023-11-21T04:48:26;0.98;;;0.35;;
52072;SDS011;38074;51.232;6.826;2023-11-21T04:55:42;1.70;;;0.30;;
52072;SDS011;38074;51.232;6.826;2023-11-21T05:02:58;1.08;;;0.30;;
52072;SDS011;38074;51.232;6.826;2023-11-21T05:17:31;0.63;;;0.30;;
52072;SDS011;38074;51.232;6.826;2023-11-21T05:24:47;0.60;;;0.40;;
52072;SDS011;38074;51.232;6.826;2023-11-21T05:32:02;0.70;;;0.30;;
52072;SDS011;38074;51.232;6.826;2023-11-21T05:39:18;0.85;;;0.45;;
52072;SDS011;38074;51.232;6.826;2023-11-21T05:46:34;0.93;;;0.30;;
52072;SDS011;38074;51.232;6.826;2023-11-21T05:53:50;0.55;;;0.22;;
52072;SDS011;38074;51.232;6.826;2023-11-21T06:01:05;0.60;;;0.30;;
52072;SDS011;38074;51.232;6.826;2023-11-21T06:08:24;1.13;;;0.47;;
52072;SDS011;38074;51.232;6.826;2023-11-21T06:15:39;3.03;;;0.50;;
52072;SDS011;38074;51.232;6.826;2023-11-21T06:22:55;1.38;;;0.47;;
52072;SDS011;38074;51.232;6.826;2023-11-21T06:30:11;6.20;;;3.57;;
52072;SDS011;38074;51.232;6.826;2023-11-21T06:37:28;6.47;;;3.83;;
52072;SDS011;38074;51.232;6.826;2023-11-21T06:44:44;8.05;;;5.20;;
52072;SDS011;38074;51.232;6.826;2023-11-21T06:52:03;6.97;;;3.90;;
52072;SDS011;38074;51.232;6.826;2023-11-21T06:59:20;11.35;;;5.15;;
52072;SDS011;38074;51.232;6.826;2023-11-21T07:06:36;13.43;;;5.47;;
52072;SDS011;38074;51.232;6.826;2023-11-21T07:13:52;9.83;;;6.47;;
52072;SDS011;38074;51.232;6.826;2023-11-21T07:21:08;9.43;;;5.30;;
52072;SDS011;38074;51.232;6.826;2023-11-21T07:28:24;10.20;;;5.03;;
52072;SDS011;38074;51.232;6.826;2023-11-21T07:35:40;12.30;;;4.83;;
52072;SDS011;38074;51.232;6.826;2023-11-21T07:42:56;14.80;;;5.82;;
52072;SDS011;38074;51.232;6.826;2023-11-21T07:50:13;10.30;;;4.53;;
52072;SDS011;38074;51.232;6.826;2023-11-21T07:57:29;13.27;;;5.72;;
52072;SDS011;38074;51.232;6.826;2023-11-21T08:04:44;5.70;;;3.37;;
52072;SDS011;38074;51.232;6.826;2023-11-21T08:12:00;8.80;;;4.27;;
52072;SDS011;38074;51.232;6.826;2023-11-21T08:19:17;9.55;;;3.42;;
52072;SDS011;38074;51.232;6.826;2023-11-21T08:26:33;9.52;;;4.60;;
52072;SDS011;38074;51.232;6.826;2023-11-21T08:33:48;11.73;;;7.27;;
52072;SDS011;38074;51.232;6.826;2023-11-21T08:41:05;14.10;;;7.88;;
52072;SDS011;38074;51.232;6.826;2023-11-21T08:48:23;17.83;;;9.73;;
52072;SDS011;38074;51.232;6.826;2023-11-21T08:55:39;16.88;;;9.57;;
52072;SDS011;38074;51.232;6.826;2023-11-21T09:02:55;16.47;;;8.87;;
52072;SDS011;38074;51.232;6.826;2023-11-21T09:10:10;15.20;;;9.10;;
52072;SDS011;38074;51.232;6.826;2023-11-21T09:17:26;15.05;;;9.15;;
52072;SDS011;38074;51.232;6.826;2023-11-21T09:24:42;11.97;;;7.00;;
52072;SDS011;38074;51.232;6.826;2023-11-21T09:31:58;16.92;;;9.27;;
52072;SDS011;38074;51.232;6.826;2023-11-21T09:39:14;15.48;;;6.53;;
52072;SDS011;38074;51.232;6.826;2023-11-21T09:46:30;10.55;;;5.47;;
52072;SDS011;38074;51.232;6.826;2023-11-21T09:53:46;9.57;;;4.60;;
52072;SDS011;38074;51.232;6.826;2023-11-21T10:01:04;8.65;;;4.28;;
52072;SDS011;38074;51.232;6.826;2023-11-21T10:08:22;8.10;;;4.32;;
52072;SDS011;38074;51.232;6.826;2023-11-21T10:15:39;6.90;;;3.63;;
52072;SDS011;38074;51.232;6.826;2023-11-21T10:23:00;6.55;;;3.45;;
52072;SDS011;38074;51.232;6.826;2023-11-21T10:30:17;7.05;;;3.15;;
52072;SDS011;38074;51.232;6.826;2023-11-21T10:37:33;9.27;;;3.50;;
52072;SDS011;38074;51.232;6.826;2023-11-21T10:44:48;5.53;;;3.00;;
52072;SDS011;38074;51.232;6.826;2023-11-21T10:52:04;24.27;;;14.07;;
52072;SDS011;38074;51.232;6.826;2023-11-21T10:59:19;19.33;;;8.68;;
52072;SDS011;38074;51.232;6.826;2023-11-21T11:06:41;10.90;;;6.78;;
52072;SDS011;38074;51.232;6.826;2023-11-21T11:14:03;10.38;;;6.30;;
52072;SDS011;38074;51.232;6.826;2023-11-21T11:21:24;9.93;;;5.65;;
52072;SDS011;38074;51.232;6.826;2023-11-21T11:29:00;9.60;;;5.40;;
52072;SDS011;38074;51.232;6.826;2023-11-21T11:36:48;12.63;;;5.88;;
52072;SDS011;38074;51.232;6.826;2023-11-21T11:44:45;9.50;;;5.53;;
52072;SDS011;38074;51.232;6.826;2023-11-21T12:00:11;9.68;;;5.65;;
52072;SDS011;38074;51.232;6.826;2023-11-21T12:07:43;11.70;;;5.60;;
52072;SDS011;38074;51.232;6.826;2023-11-21T12:15:08;11.35;;;5.82;;
52072;SDS011;38074;51.232;6.826;2023-11-21T12:22:24;13.27;;;5.93;;
52072;SDS011;38074;51.232;6.826;2023-11-21T12:29:40;10.77;;;5.18;;
52072;SDS011;38074;51.232;6.826;2023-11-21T12:36:55;9.27;;;4.75;;
52072;SDS011;38074;51.232;6.826;2023-11-21T12:44:12;9.90;;;4.20;;
52072;SDS011;38074;51.232;6.826;2023-11-21T12:51:30;8.52;;;5.43;;
52072;SDS011;38074;51.232;6.826;2023-11-21T12:58:46;9.80;;;4.70;;
52072;SDS011;38074;51.232;6.826;2023-11-21T13:06:02;8.20;;;4.65;;
52072;SDS011;38074;51.232;6.826;2023-11-21T13:13:20;13.50;;;6.95;;
52072;SDS011;38074;51.232;6.826;2023-11-21T13:20:35;12.88;;;6.63;;
52072;SDS011;38074;51.232;6.826;2023-11-21T13:27:52;9.50;;;5.70;;
52072;SDS011;38074;51.232;6.826;2023-11-21T13:35:07;53.67;;;35.93;;
52072;SDS011;38074;51.232;6.826;2023-11-21T13:42:29;29.70;;;20.55;;
52072;SDS011;38074;51.232;6.826;2023-11-21T13:49:45;21.05;;;13.63;;
52072;SDS011;38074;51.232;6.826;2023-11-21T13:57:02;20.65;;;14.77;;
52072;SDS011;38074;51.232;6.826;2023-11-21T14:04:20;24.77;;;15.68;;
52072;SDS011;38074;51.232;6.826;2023-11-21T14:11:57;25.02;;;15.18;;
52072;SDS011;38074;51.232;6.826;2023-11-21T14:19:14;32.78;;;23.05;;
52072;SDS011;38074;51.232;6.826;2023-11-21T14:26:32;39.20;;;28.80;;
52072;SDS011;38074;51.232;6.826;2023-11-21T14:33:48;34.27;;;24.63;;
52072;SDS011;38074;51.232;6.826;2023-11-21T14:41:03;31.77;;;21.20;;
52072;SDS011;38074;51.232;6.826;2023-11-21T14:48:19;27.38;;;20.17;;
52072;SDS011;38074;51.232;6.826;2023-11-21T14:55:49;31.10;;;20.02;;
52072;SDS011;38074;51.232;6.826;2023-11-21T15:03:05;22.70;;;15.53;;
52072;SDS011;38074;51.232;6.826;2023-11-21T15:10:22;23.10;;;14.20;;
52072;SDS011;38074;51.232;6.826;2023-11-21T15:17:53;19.92;;;14.25;;
52072;SDS011;38074;51.232;6.826;2023-11-21T15:25:08;18.57;;;12.93;;
52072;SDS011;38074;51.232;6.826;2023-11-21T15:32:25;22.10;;;13.57;;
52072;SDS011;38074;51.232;6.826;2023-11-21T15:39:41;19.77;;;12.93;;
52072;SDS011;38074;51.232;6.826;2023-11-21T15:46:57;19.92;;;12.55;;
52072;SDS011;38074;51.232;6.826;2023-11-21T15:54:12;17.20;;;11.30;;
52072;SDS011;38074;51.232;6.826;2023-11-21T16:01:28;16.80;;;10.82;;
52072;SDS011;38074;51.232;6.826;2023-11-21T16:08:44;19.20;;;10.05;;
52072;SDS011;38074;51.232;6.826;2023-11-21T16:16:00;13.70;;;9.43;;
52072;SDS011;38074;51.232;6.826;2023-11-21T16:23:16;13.93;;;8.82;;
52072;SDS011;38074;51.232;6.826;2023-11-21T16:30:32;14.20;;;8.30;;
52072;SDS011;38074;51.232;6.826;2023-11-21T16:37:48;13.27;;;8.68;;
52072;SDS011;38074;51.232;6.826;2023-11-21T16:45:04;12.15;;;8.20;;
52072;SDS011;38074;51.232;6.826;2023-11-21T16:52:21;11.13;;;7.17;;
52072;SDS011;38074;51.232;6.826;2023-11-21T16:59:37;10.00;;;6.38;;
52072;SDS011;38074;51.232;6.826;2023-11-21T17:06:53;9.52;;;6.45;;
52072;SDS011;38074;51.232;6.826;2023-11-21T17:14:09;10.97;;;6.30;;
52072;SDS011;38074;51.232;6.826;2023-11-21T17:21:24;7.87;;;5.70;;
52072;SDS011;38074;51.232;6.826;2023-11-21T17:28:40;10.77;;;6.33;;
52072;SDS011;38074;51.232;6.826;2023-11-21T17:35:56;11.17;;;6.03;;
52072;SDS011;38074;51.232;6.826;2023-11-21T17:43:12;10.25;;;6.53;;
52072;SDS011;38074;51.232;6.826;2023-11-21T17:50:28;9.83;;;5.63;;
52072;SDS011;38074;51.232;6.826;2023-11-21T17:57:43;8.33;;;6.10;;
52072;SDS011;38074;51.232;6.826;2023-11-21T18:04:59;8.00;;;5.37;;
52072;SDS011;38074;51.232;6.826;2023-11-21T18:12:16;7.90;;;5.27;;
52072;SDS011;38074;51.232;6.826;2023-11-21T18:19:33;8.10;;;5.97;;
52072;SDS011;38074;51.232;6.826;2023-11-21T18:26:50;9.77;;;6.85;;
52072;SDS011;38074;51.232;6.826;2023-11-21T18:34:05;9.57;;;6.37;;
52072;SDS011;38074;51.232;6.826;2023-11-21T18:41:22;9.15;;;5.72;;
52072;SDS011;38074;51.232;6.826;2023-11-21T18:48:38;7.67;;;5.77;;
52072;SDS011;38074;51.232;6.826;2023-11-21T18:55:54;8.17;;;5.20;;
52072;SDS011;38074;51.232;6.826;2023-11-21T19:03:09;6.72;;;4.50;;
52072;SDS011;38074;51.232;6.826;2023-11-21T19:10:26;7.05;;;4.70;;
52072;SDS011;38074;51.232;6.826;2023-11-21T19:17:44;5.80;;;4.00;;
52072;SDS011;38074;51.232;6.826;2023-11-21T19:25:00;5.20;;;3.95;;
52072;SDS011;38074;51.232;6.826;2023-11-21T19:32:16;4.95;;;3.80;;
52072;SDS011;38074;51.232;6.826;2023-11-21T19:39:31;6.20;;;3.90;;
52072;SDS011;38074;51.232;6.826;2023-11-21T19:46:47;6.53;;;3.30;;
52072;SDS011;38074;51.232;6.826;2023-11-21T19:54:03;6.22;;;3.08;;
52072;SDS011;38074;51.232;6.826;2023-11-21T20:01:18;4.70;;;3.00;;
52072;SDS011;38074;51.232;6.826;2023-11-21T20:08:35;6.47;;;2.97;;
52072;SDS011;38074;51.232;6.826;2023-11-21T20:15:50;4.13;;;2.80;;
52072;SDS011;38074;51.232;6.826;2023-11-21T20:23:06;3.13;;;2.47;;
52072;SDS011;38074;51.232;6.826;2023-11-21T20:30:21;4.20;;;2.70;;
52072;SDS011;38074;51.232;6.826;2023-11-21T20:37:42;3.88;;;2.58;;
52072;SDS011;38074;51.232;6.826;2023-11-21T20:44:58;3.67;;;2.57;;
52072;SDS011;38074;51.232;6.826;2023-11-21T20:52:13;3.72;;;2.53;;
52072;SDS011;38074;51.232;6.826;2023-11-21T20:59:29;3.47;;;2.03;;
52072;SDS011;38074;51.232;6.826;2023-11-21T21:06:45;2.35;;;1.60;;
52072;SDS011;38074;51.232;6.826;2023-11-21T21:14:00;4.80;;;2.40;;
52072;SDS011;38074;51.232;6.826;2023-11-21T21:21:16;4.13;;;2.10;;
52072;SDS011;38074;51.232;6.826;2023-11-21T21:28:32;2.75;;;1.83;;
52072;SDS011;38074;51.232;6.826;2023-11-21T21:35:47;3.57;;;1.83;;
52072;SDS011;38074;51.232;6.826;2023-11-21T21:43:02;2.90;;;1.67;;
52072;SDS011;38074;51.232;6.826;2023-11-21T21:50:18;3.67;;;1.70;;
52072;SDS011;38074;51.232;6.826;2023-11-21T21:57:34;4.35;;;1.90;;
52072;SDS011;38074;51.232;6.826;2023-11-21T22:04:49;2.30;;;1.60;;
52072;SDS011;38074;51.232;6.826;2023-11-21T22:12:05;1.67;;;1.27;;
52072;SDS011;38074;51.232;6.826;2023-11-21T22:19:21;2.10;;;1.40;;
52072;SDS011;38074;51.232;6.826;2023-11-21T22:26:36;2.00;;;1.40;;
52072;SDS011;38074;51.232;6.826;2023-11-21T22:33:52;2.23;;;1.50;;
52072;SDS011;38074;51.232;6.826;2023-11-21T22:41:07;1.83;;;1.30;;
52072;SDS011;38074;51.232;6.826;2023-11-21T22:48:23;2.50;;;1.50;;
52072;SDS011;38074;51.232;6.826;2023-11-21T22:55:39;2.30;;;1.53;;
52072;SDS011;38074;51.232;6.826;2023-11-21T23:02:54;4.03;;;1.87;;
52072;SDS011;38074;51.232;6.826;2023-11-21T23:10:11;3.03;;;1.80;;
52072;SDS011;38074;51.232;6.826;2023-11-21T23:17:26;2.73;;;1.83;;
52072;SDS011;38074;51.232;6.826;2023-11-21T23:24:42;4.00;;;1.63;;
52072;SDS011;38074;51.232;6.826;2023-11-21T23:31:58;3.53;;;1.77;;
52072;SDS011;38074;51.232;6.826;2023-11-21T23:39:14;5.20;;;2.10;;
52072;SDS011;38074;51.232;6.826;2023-11-21T23:46:32;3.53;;;1.50;;
52072;SDS011;38074;51.232;6.826;2023-11-21T23:53:50;3.53;;;1.90;;
